createdAt,value
2022-11-05T00:01:10.459Z,0.50
2022-11-05T00:03:57.760Z,0.70
2022-11-05T00:06:44.382Z,1.70
2022-11-05T00:09:31.270Z,1.37
2022-11-05T00:12:29.103Z,1.20
2022-11-05T00:15:20.053Z,1.37
2022-11-05T00:17:56.994Z,1.17
2022-11-05T00:20:34.390Z,1.57
2022-11-05T00:23:25.349Z,1.57
2022-11-05T00:26:12.134Z,1.63
2022-11-05T00:28:46.975Z,1.57
2022-11-05T00:31:20.955Z,1.37
2022-11-05T00:33:51.742Z,0.93
2022-11-05T00:36:28.154Z,0.83
2022-11-05T00:39:06.303Z,1.90
2022-11-05T00:41:40.933Z,1.40
2022-11-05T00:44:29.377Z,1.23
2022-11-05T00:47:15.605Z,1.10
2022-11-05T00:49:43.745Z,1.03
2022-11-05T00:52:33.881Z,1.40
2022-11-05T00:55:07.470Z,0.80
2022-11-05T00:57:36.712Z,0.70
2022-11-05T01:00:06.479Z,1.23
2022-11-05T01:02:39.825Z,1.93
2022-11-05T01:05:11.367Z,1.00
2022-11-05T01:07:47.653Z,0.50
2022-11-05T01:10:17.865Z,0.63
2022-11-05T01:12:54.715Z,1.40
2022-11-05T01:15:27.993Z,0.43
2022-11-05T01:17:57.271Z,0.87
2022-11-05T01:20:28.227Z,0.77
2022-11-05T01:22:58.595Z,0.52
2022-11-05T01:25:38.307Z,0.30
2022-11-05T01:28:12.247Z,0.07
2022-11-05T01:30:41.964Z,0.20
2022-11-05T01:33:12.448Z,0.33
2022-11-05T01:35:44.524Z,0.97
2022-11-05T01:38:22.266Z,0.53
2022-11-05T01:40:53.172Z,0.10
2022-11-05T01:43:25.163Z,0.30
2022-11-05T01:46:02.013Z,0.30
2022-11-05T01:48:39.533Z,0.63
2022-11-05T01:51:21.089Z,0.17
2022-11-05T01:54:00.970Z,0.08
2022-11-05T01:56:40.915Z,0.10
2022-11-05T01:59:18.066Z,0.40
2022-11-05T02:01:47.797Z,0.30
2022-11-05T02:04:34.112Z,0.17
2022-11-05T02:07:09.615Z,0.20
2022-11-05T02:10:13.454Z,0.00
2022-11-05T02:12:53.586Z,0.13
2022-11-05T02:15:55.021Z,0.13
2022-11-05T02:19:13.397Z,0.30
2022-11-05T02:22:12.655Z,0.10
2022-11-05T02:25:13.536Z,0.87
2022-11-05T02:27:55.856Z,0.30
2022-11-05T02:31:13.142Z,0.60
2022-11-05T02:34:05.724Z,0.10
2022-11-05T02:37:23.110Z,0.30
2022-11-05T02:40:24.041Z,0.37
2022-11-05T02:46:55.347Z,0.20
2022-11-05T02:52:40.677Z,0.37
2022-11-05T02:58:21.515Z,0.10
2022-11-05T03:01:08.880Z,0.00
2022-11-05T03:03:49.815Z,0.13
2022-11-05T03:06:44.720Z,0.20
2022-11-05T03:09:50.444Z,0.30
2022-11-05T03:12:26.107Z,0.17
2022-11-05T03:15:31.504Z,0.27
2022-11-05T03:18:06.759Z,0.10
2022-11-05T03:21:06.431Z,0.20
2022-11-05T03:24:00.568Z,0.13
2022-11-05T03:26:40.238Z,0.20
2022-11-05T03:29:36.948Z,0.07
2022-11-05T03:32:12.564Z,0.27
2022-11-05T03:34:57.850Z,0.23
2022-11-05T03:37:42.355Z,0.20
2022-11-05T03:40:26.826Z,0.67
2022-11-05T03:43:05.255Z,0.23
2022-11-05T03:45:44.753Z,0.20
2022-11-05T03:48:23.077Z,0.30
2022-11-05T03:51:05.176Z,0.30
2022-11-05T03:56:23.555Z,0.37
2022-11-05T03:58:58.912Z,0.30
2022-11-05T04:01:37.251Z,0.47
2022-11-05T04:04:26.446Z,0.30
2022-11-05T04:07:15.617Z,0.37
2022-11-05T04:10:01.066Z,0.37
2022-11-05T04:12:49.425Z,0.10
2022-11-05T04:15:17.896Z,0.20
2022-11-05T04:17:49.373Z,0.30
2022-11-05T04:20:48.856Z,0.10
2022-11-05T04:29:23.345Z,0.30
2022-11-05T04:31:54.331Z,0.40
2022-11-05T04:34:25.866Z,0.50
2022-11-05T04:37:01.403Z,0.10
2022-11-05T04:39:32.826Z,0.37
2022-11-05T04:42:03.498Z,0.10
2022-11-05T04:44:34.747Z,0.20
2022-11-05T04:47:11.661Z,0.40
2022-11-05T04:49:43.223Z,0.20
2022-11-05T04:52:15.599Z,0.13
2022-11-05T04:54:47.095Z,0.50
2022-11-05T04:57:16.822Z,0.20
2022-11-05T04:59:52.824Z,1.03
2022-11-05T05:02:30.180Z,0.13
2022-11-05T05:05:01.610Z,0.57
2022-11-05T05:07:32.639Z,0.20
2022-11-05T05:10:05.404Z,0.00
2022-11-05T05:12:46.008Z,0.10
2022-11-05T05:15:16.464Z,0.30
2022-11-05T05:18:00.122Z,0.10
2022-11-05T05:20:53.699Z,0.20
2022-11-05T05:23:35.837Z,0.03
2022-11-05T05:26:15.679Z,0.17
2022-11-05T05:28:45.890Z,0.17
2022-11-05T05:31:17.287Z,0.87
2022-11-05T05:33:55.649Z,1.13
2022-11-05T05:36:26.914Z,0.70
2022-11-05T05:38:59.361Z,0.37
2022-11-05T05:41:36.859Z,0.57
2022-11-05T05:44:06.351Z,0.23
2022-11-05T05:46:35.993Z,0.97
2022-11-05T05:51:59.540Z,0.70
2022-11-05T05:54:42.649Z,0.57
2022-11-05T05:57:18.661Z,0.27
2022-11-05T06:00:02.742Z,0.40
2022-11-05T06:02:56.149Z,1.00
2022-11-05T06:05:37.406Z,0.93
2022-11-05T06:08:08.175Z,1.13
2022-11-05T06:10:42.102Z,1.37
2022-11-05T06:13:15.761Z,1.07
2022-11-05T06:15:47.060Z,1.37
2022-11-05T06:18:15.944Z,1.13
2022-11-05T06:23:30.276Z,1.17
2022-11-05T06:26:15.799Z,0.57
2022-11-05T06:28:46.656Z,0.60
2022-11-05T06:31:16.940Z,0.87
2022-11-05T06:33:50.675Z,0.93
2022-11-05T06:36:34.394Z,1.60
2022-11-05T06:39:05.142Z,1.27
2022-11-05T06:42:17.172Z,1.03
2022-11-05T06:44:40.287Z,1.00
2022-11-05T06:47:15.474Z,1.53
2022-11-05T06:49:51.983Z,1.10
2022-11-05T06:52:20.594Z,1.27
2022-11-05T06:54:56.309Z,1.03
2022-11-05T06:57:27.594Z,1.70
2022-11-05T07:00:08.091Z,1.10
2022-11-05T07:02:37.220Z,0.80
2022-11-05T07:05:07.754Z,1.20
2022-11-05T07:07:41.418Z,0.90
2022-11-05T07:10:17.332Z,1.40
2022-11-05T07:12:47.844Z,1.07
2022-11-05T07:15:25.517Z,0.67
2022-11-05T07:18:07.718Z,1.17
2022-11-05T07:20:44.376Z,1.03
2022-11-05T07:23:27.936Z,0.87
2022-11-05T07:25:59.486Z,0.90
2022-11-05T07:28:43.804Z,0.47
2022-11-05T07:31:25.101Z,0.50
2022-11-05T07:34:02.630Z,0.70
2022-11-05T07:36:36.717Z,0.53
2022-11-05T07:39:06.038Z,0.80
2022-11-05T07:41:40.048Z,0.87
2022-11-05T07:44:14.016Z,1.10
2022-11-05T07:46:48.311Z,0.67
2022-11-05T07:49:34.562Z,1.10
2022-11-05T07:52:05.662Z,0.77
2022-11-05T07:54:47.429Z,1.17
2022-11-05T07:57:17.326Z,0.87
2022-11-05T07:59:59.300Z,0.80
2022-11-05T08:04:58.987Z,1.10
2022-11-05T08:07:26.890Z,0.57
2022-11-05T08:10:01.215Z,1.37
2022-11-05T08:12:36.628Z,1.53
2022-11-05T08:15:11.088Z,1.03
2022-11-05T08:17:41.266Z,1.10
2022-11-05T08:20:11.653Z,0.73
2022-11-05T08:22:46.714Z,0.65
2022-11-05T08:25:24.734Z,0.80
2022-11-05T08:28:11.651Z,1.47
2022-11-05T08:30:42.762Z,0.70
2022-11-05T08:33:13.920Z,3.05
2022-11-05T08:38:20.526Z,0.80
2022-11-05T08:41:00.668Z,0.80
2022-11-05T08:43:29.582Z,0.60
2022-11-05T08:49:10.278Z,0.73
2022-11-05T08:51:39.033Z,0.30
2022-11-05T08:54:16.084Z,0.37
2022-11-05T08:59:32.156Z,0.80
2022-11-05T09:02:09.601Z,0.68
2022-11-05T09:04:41.225Z,0.30
2022-11-05T09:09:57.006Z,0.30
2022-11-05T09:12:33.682Z,0.40
2022-11-05T09:15:02.828Z,0.20
2022-11-05T09:17:36.620Z,0.87
2022-11-05T09:20:07.037Z,0.60
2022-11-05T09:22:43.066Z,0.73
2022-11-05T09:25:16.543Z,1.00
2022-11-05T09:27:47.195Z,0.67
2022-11-05T09:30:19.661Z,0.55
2022-11-05T09:32:48.809Z,0.70
2022-11-05T09:35:25.277Z,1.00
2022-11-05T09:38:01.228Z,1.03
2022-11-05T09:40:39.020Z,1.00
2022-11-05T09:43:11.745Z,1.60
2022-11-05T09:45:41.281Z,0.70
2022-11-05T09:48:30.217Z,1.00
2022-11-05T09:50:59.048Z,0.60
2022-11-05T09:53:27.612Z,0.80
2022-11-05T09:56:11.208Z,0.87
2022-11-05T09:59:06.695Z,0.80
2022-11-05T10:01:41.508Z,0.20
2022-11-05T10:04:33.438Z,0.40
2022-11-05T10:07:14.936Z,0.33
2022-11-05T10:09:48.151Z,0.00
2022-11-05T10:12:52.519Z,0.30
2022-11-05T10:15:25.181Z,0.23
2022-11-05T10:18:05.482Z,0.30
2022-11-05T10:20:43.064Z,0.10
2022-11-05T10:23:26.097Z,3.73
2022-11-05T10:26:06.683Z,13.80
2022-11-05T10:28:42.428Z,1.27
2022-11-05T10:31:17.873Z,1.67
2022-11-05T10:33:58.427Z,0.80
2022-11-05T10:36:32.012Z,6.27
2022-11-05T10:39:20.706Z,1.10
2022-11-05T10:42:07.819Z,2.57
2022-11-05T10:45:07.770Z,4.50
2022-11-05T10:48:23.485Z,1.10
2022-11-05T10:51:01.350Z,1.60
2022-11-05T10:53:40.798Z,9.63
2022-11-05T10:56:45.818Z,15.63
2022-11-05T11:00:01.439Z,3.50
2022-11-05T11:02:32.572Z,5.77
2022-11-05T11:07:56.112Z,1.30
2022-11-05T11:10:43.944Z,0.70
2022-11-05T11:16:37.796Z,3.47
2022-11-05T11:19:47.088Z,9.27
2022-11-05T11:22:24.105Z,2.07
2022-11-05T11:24:54.145Z,0.90
2022-11-05T11:27:37.901Z,0.30
2022-11-05T11:30:22.532Z,0.90
2022-11-05T11:32:53.367Z,3.13
2022-11-05T11:35:45.726Z,1.73
2022-11-05T11:38:28.053Z,0.63
2022-11-05T11:41:24.134Z,0.43
2022-11-05T11:44:07.985Z,0.53
2022-11-05T11:46:44.853Z,0.40
2022-11-05T11:49:48.133Z,0.40
2022-11-05T11:52:38.926Z,0.37
2022-11-05T11:55:23.815Z,0.37
2022-11-05T11:57:59.037Z,0.10
2022-11-05T12:00:31.707Z,0.20
2022-11-05T12:03:23.347Z,0.20
2022-11-05T12:06:44.959Z,0.38
2022-11-05T12:10:05.061Z,0.28
2022-11-05T12:12:46.639Z,0.10
2022-11-05T12:16:09.170Z,0.22
2022-11-05T12:19:26.543Z,0.50
2022-11-05T12:22:06.275Z,0.17
2022-11-05T12:24:54.317Z,0.10
2022-11-05T12:30:59.190Z,0.30
2022-11-05T12:33:57.565Z,0.30
2022-11-05T12:37:00.523Z,0.20
2022-11-05T12:40:06.429Z,0.50
2022-11-05T12:43:00.526Z,0.33
2022-11-05T12:46:09.027Z,0.30
2022-11-05T12:49:39.847Z,0.10
2022-11-05T12:52:41.677Z,0.10
2022-11-05T12:55:22.015Z,0.25
2022-11-05T12:58:03.194Z,0.57
2022-11-05T13:00:55.721Z,0.50
2022-11-05T13:04:16.742Z,0.20
2022-11-05T13:06:58.127Z,0.30
2022-11-05T13:09:47.123Z,0.55
2022-11-05T13:12:26.257Z,0.40
2022-11-05T13:15:25.660Z,0.57
2022-11-05T13:18:16.744Z,0.40
2022-11-05T13:20:54.906Z,0.30
2022-11-05T13:23:52.544Z,0.27
2022-11-05T13:26:33.215Z,0.23
2022-11-05T13:29:28.691Z,0.40
2022-11-05T13:32:04.871Z,0.40
2022-11-05T13:34:42.386Z,0.23
2022-11-05T13:37:43.824Z,0.40
2022-11-05T13:40:20.223Z,0.38
2022-11-05T13:43:44.076Z,0.27
2022-11-05T13:47:11.527Z,0.40
2022-11-05T13:53:43.564Z,0.60
2022-11-05T13:56:49.116Z,0.53
2022-11-05T13:59:41.229Z,0.10
2022-11-05T14:05:40.567Z,0.33
2022-11-05T14:08:13.222Z,0.27
2022-11-05T14:11:00.845Z,0.60
2022-11-05T14:13:43.824Z,0.33
2022-11-05T14:16:27.254Z,0.30
2022-11-05T14:18:57.529Z,0.50
2022-11-05T14:21:48.879Z,0.50
2022-11-05T14:24:34.223Z,0.17
2022-11-05T14:27:07.648Z,0.53
2022-11-05T14:29:49.013Z,0.37
2022-11-05T14:32:31.487Z,0.57
2022-11-05T14:35:48.504Z,0.50
2022-11-05T14:38:33.832Z,0.30
2022-11-05T14:41:12.442Z,0.00
2022-11-05T14:43:48.941Z,0.53
2022-11-05T14:46:25.642Z,0.50
2022-11-05T14:49:09.315Z,1.10
2022-11-05T14:51:52.234Z,1.33
2022-11-05T14:54:45.657Z,1.00
2022-11-05T14:57:39.237Z,0.67
2022-11-05T15:00:13.392Z,0.80
2022-11-05T15:03:26.965Z,0.80
2022-11-05T15:06:05.050Z,0.57
2022-11-05T15:08:53.969Z,0.80
2022-11-05T15:11:34.828Z,0.80
2022-11-05T15:14:38.029Z,0.70
2022-11-05T15:17:24.552Z,1.33
2022-11-05T15:22:56.025Z,1.17
2022-11-05T15:25:41.104Z,1.20
2022-11-05T15:28:36.627Z,2.23
2022-11-05T15:31:21.967Z,2.83
2022-11-05T15:33:58.496Z,2.20
2022-11-05T15:36:54.965Z,2.83
2022-11-05T15:39:49.661Z,3.20
2022-11-05T15:42:31.758Z,4.60
2022-11-05T15:45:07.486Z,3.80
2022-11-05T15:47:37.127Z,2.83
2022-11-05T15:50:24.700Z,2.17
2022-11-05T15:53:28.348Z,4.27
2022-11-05T15:56:22.914Z,1.80
2022-11-05T15:59:10.000Z,1.27
2022-11-05T16:01:51.875Z,1.30
2022-11-05T16:04:58.144Z,1.47
2022-11-05T16:07:29.248Z,0.73
2022-11-05T16:10:23.815Z,1.57
2022-11-05T16:12:55.497Z,3.80
2022-11-05T16:15:32.772Z,2.88
2022-11-05T16:18:22.275Z,2.70
2022-11-05T16:21:26.153Z,1.73
2022-11-05T16:24:06.790Z,3.40
2022-11-05T16:27:02.149Z,4.13
2022-11-05T16:29:53.062Z,4.87
2022-11-05T16:32:30.985Z,2.33
2022-11-05T16:35:05.482Z,2.40
2022-11-05T16:37:51.676Z,1.93
2022-11-05T16:40:51.395Z,1.80
2022-11-05T16:43:26.605Z,1.87
2022-11-05T16:46:04.192Z,2.20
2022-11-05T16:48:34.122Z,1.03
2022-11-05T16:51:02.823Z,1.40
2022-11-05T16:53:35.463Z,0.90
2022-11-05T16:58:59.241Z,0.87
2022-11-05T17:01:30.057Z,1.70
2022-11-05T17:04:03.287Z,1.45
2022-11-05T17:06:40.491Z,1.50
2022-11-05T17:09:11.573Z,3.73
2022-11-05T17:11:48.527Z,1.73
2022-11-05T17:14:31.138Z,2.03
2022-11-05T17:17:06.032Z,1.95
2022-11-05T17:19:37.466Z,1.87
2022-11-05T17:22:06.782Z,1.90
2022-11-05T17:24:37.935Z,1.70
2022-11-05T17:27:11.395Z,1.95
2022-11-05T17:29:41.808Z,3.30
2022-11-05T17:32:13.168Z,2.60
2022-11-05T17:34:44.096Z,3.13
2022-11-05T17:37:14.073Z,3.78
2022-11-05T17:39:44.639Z,3.20
2022-11-05T17:42:14.174Z,3.37
2022-11-05T17:44:43.267Z,3.70
2022-11-05T17:47:12.969Z,4.47
2022-11-05T17:49:43.600Z,5.03
2022-11-05T17:52:12.945Z,5.47
2022-11-05T17:54:43.323Z,4.67
2022-11-05T17:57:11.376Z,2.90
2022-11-05T17:59:42.054Z,1.27
2022-11-05T18:04:53.550Z,1.23
2022-11-05T18:07:26.363Z,0.83
2022-11-05T18:09:56.460Z,0.90
2022-11-05T18:12:26.492Z,0.87
2022-11-05T18:14:56.420Z,0.50
2022-11-05T18:17:26.699Z,0.90
2022-11-05T18:19:57.673Z,0.80
2022-11-05T18:22:29.339Z,1.50
2022-11-05T18:25:05.466Z,1.65
2022-11-05T18:27:34.681Z,1.77
2022-11-05T18:30:08.264Z,3.13
2022-11-05T18:32:38.604Z,4.03
2022-11-05T18:35:09.630Z,2.30
2022-11-05T18:37:51.773Z,6.78
2022-11-05T18:40:35.930Z,5.27
2022-11-05T18:43:09.843Z,3.47
2022-11-05T18:45:47.892Z,3.23
2022-11-05T18:48:22.729Z,3.30
2022-11-05T18:50:59.145Z,2.90
2022-11-05T18:53:35.058Z,2.58
2022-11-05T18:56:21.516Z,3.00
2022-11-05T18:59:30.099Z,1.23
2022-11-05T19:01:53.870Z,1.43
2022-11-05T19:04:28.729Z,1.37
2022-11-05T19:07:04.802Z,2.70
2022-11-05T19:09:35.794Z,1.80
2022-11-05T19:15:03.021Z,1.70
2022-11-05T19:17:33.536Z,5.80
2022-11-05T19:20:03.537Z,5.50
2022-11-05T19:22:31.926Z,2.70
2022-11-05T19:25:13.460Z,2.00
2022-11-05T19:27:49.673Z,2.42
2022-11-05T19:30:18.653Z,1.73
2022-11-05T19:32:47.407Z,2.57
2022-11-05T19:35:18.179Z,1.20
2022-11-05T19:37:50.512Z,1.98
2022-11-05T19:40:19.376Z,1.87
2022-11-05T19:42:48.821Z,1.47
2022-11-05T19:48:17.842Z,2.97
2022-11-05T19:50:49.672Z,2.83
2022-11-05T19:53:19.187Z,3.23
2022-11-05T19:55:48.172Z,2.07
2022-11-05T19:58:18.841Z,2.93
2022-11-05T20:00:49.492Z,1.87
2022-11-05T20:05:53.973Z,1.90
2022-11-05T20:08:27.880Z,0.68
2022-11-05T20:10:59.510Z,1.10
2022-11-05T20:13:37.290Z,1.13
2022-11-05T20:16:14.518Z,1.50
2022-11-05T20:18:50.022Z,1.83
2022-11-05T20:21:28.618Z,1.53
2022-11-05T20:24:06.374Z,4.27
2022-11-05T20:26:35.812Z,3.83
2022-11-05T20:29:06.975Z,3.50
2022-11-05T20:31:43.576Z,3.30
2022-11-05T20:34:14.514Z,4.03
2022-11-05T20:36:43.635Z,4.03
2022-11-05T20:42:03.283Z,3.80
2022-11-05T20:44:33.295Z,3.80
2022-11-05T20:47:04.813Z,2.50
2022-11-05T20:49:34.103Z,4.10
2022-11-05T20:52:03.217Z,3.83
2022-11-05T20:54:33.511Z,4.17
2022-11-05T20:57:09.796Z,3.83
2022-11-05T20:59:40.546Z,3.27
2022-11-05T21:02:16.031Z,1.97
2022-11-05T21:04:47.538Z,2.87
2022-11-05T21:07:16.712Z,2.25
2022-11-05T21:09:46.390Z,1.30
2022-11-05T21:12:19.854Z,1.03
2022-11-05T21:15:04.271Z,1.43
2022-11-05T21:17:34.742Z,1.50
2022-11-05T21:20:08.967Z,0.90
2022-11-05T21:22:37.149Z,1.50
2022-11-05T21:25:10.938Z,1.20
2022-11-05T21:27:43.736Z,1.87
2022-11-05T21:30:13.973Z,1.37
2022-11-05T21:35:24.910Z,1.25
2022-11-05T21:38:01.708Z,1.90
2022-11-05T21:40:36.051Z,1.40
2022-11-05T21:43:13.499Z,1.97
2022-11-05T21:45:54.656Z,1.80
2022-11-05T21:48:23.835Z,1.30
2022-11-05T21:51:12.059Z,2.17
2022-11-05T21:54:00.365Z,3.50
2022-11-05T21:56:47.723Z,3.37
2022-11-05T22:02:32.164Z,6.67
2022-11-05T22:05:06.843Z,2.93
2022-11-05T22:07:39.989Z,2.50
2022-11-05T22:10:15.914Z,3.90
2022-11-05T22:12:51.568Z,2.70
2022-11-05T22:15:19.223Z,5.33
2022-11-05T22:17:53.983Z,4.67
2022-11-05T22:20:25.535Z,3.37
2022-11-05T22:23:03.312Z,3.20
2022-11-05T22:25:36.502Z,3.50
2022-11-05T22:28:12.207Z,2.67
2022-11-05T22:30:42.461Z,3.73
2022-11-05T22:33:19.983Z,3.40
2022-11-05T22:35:50.700Z,4.20
2022-11-05T22:38:21.182Z,3.13
2022-11-05T22:40:51.765Z,3.50
2022-11-05T22:43:20.663Z,3.30
2022-11-05T22:45:52.686Z,3.10
2022-11-05T22:48:21.684Z,3.17
2022-11-05T22:50:51.821Z,1.63
2022-11-05T22:53:25.512Z,3.00
2022-11-05T22:55:54.516Z,2.43
2022-11-05T22:58:30.794Z,2.53
2022-11-05T23:01:03.047Z,2.70
2022-11-05T23:03:34.015Z,2.40
2022-11-05T23:06:34.029Z,2.22
2022-11-05T23:09:22.864Z,2.40
2022-11-05T23:12:03.893Z,2.33
2022-11-05T23:14:34.676Z,2.83
2022-11-05T23:17:25.562Z,1.87
2022-11-05T23:20:29.030Z,2.70
2022-11-05T23:23:16.903Z,2.95
2022-11-05T23:25:47.081Z,1.93
2022-11-05T23:28:23.961Z,2.93
2022-11-05T23:31:10.110Z,1.90
2022-11-05T23:33:46.536Z,2.03
2022-11-05T23:36:31.570Z,1.63
2022-11-05T23:39:09.479Z,2.00
2022-11-05T23:41:57.016Z,2.83
2022-11-05T23:44:44.662Z,2.10
2022-11-05T23:47:34.208Z,1.47
2022-11-05T23:50:07.956Z,1.93
2022-11-05T23:52:39.202Z,2.97
2022-11-05T23:55:18.410Z,2.60
2022-11-05T23:57:56.269Z,2.17
